createdAt,value
2023-01-22T00:01:21.022Z,38.45
2023-01-22T00:03:49.704Z,36.97
2023-01-22T00:06:20.717Z,36.13
2023-01-22T00:08:48.471Z,36.70
2023-01-22T00:11:17.665Z,38.00
2023-01-22T00:13:46.274Z,43.47
2023-01-22T00:16:16.442Z,38.50
2023-01-22T00:18:44.616Z,43.05
2023-01-22T00:21:16.119Z,35.88
2023-01-22T00:23:43.855Z,29.63
2023-01-22T00:26:17.840Z,37.78
2023-01-22T00:28:46.485Z,42.50
2023-01-22T00:31:16.421Z,37.67
2023-01-22T00:33:45.588Z,38.50
2023-01-22T00:36:19.028Z,41.33
2023-01-22T00:38:49.477Z,42.67
2023-01-22T00:41:19.144Z,36.80
2023-01-22T00:43:47.236Z,44.75
2023-01-22T00:46:17.121Z,36.08
2023-01-22T00:48:45.440Z,38.53
2023-01-22T00:51:14.968Z,37.67
2023-01-22T00:56:13.480Z,41.35
2023-01-22T00:58:41.956Z,49.75
2023-01-22T01:01:10.207Z,46.75
2023-01-22T01:03:38.370Z,34.42
2023-01-22T01:06:07.926Z,39.45
2023-01-22T01:08:38.647Z,43.80
2023-01-22T01:11:16.275Z,47.03
2023-01-22T01:13:45.442Z,48.03
2023-01-22T01:16:28.994Z,45.47
2023-01-22T01:19:03.677Z,47.30
2023-01-22T01:21:34.529Z,52.28
2023-01-22T01:24:02.715Z,48.70
2023-01-22T01:26:30.457Z,51.28
2023-01-22T01:28:58.135Z,48.83
2023-01-22T01:31:28.546Z,50.72
2023-01-22T01:33:59.051Z,49.45
2023-01-22T01:36:47.064Z,52.90
2023-01-22T01:39:15.063Z,49.72
2023-01-22T01:41:42.687Z,48.47
2023-01-22T01:44:19.906Z,48.08
2023-01-22T01:47:07.841Z,51.00
2023-01-22T01:49:40.730Z,41.35
2023-01-22T01:52:12.119Z,38.13
2023-01-22T01:54:43.184Z,50.35
2023-01-22T01:57:16.774Z,44.13
2023-01-22T01:59:46.289Z,43.90
2023-01-22T02:02:14.282Z,41.85
2023-01-22T02:04:44.020Z,50.88
2023-01-22T02:07:11.884Z,49.53
2023-01-22T02:09:39.724Z,47.47
2023-01-22T02:12:08.242Z,47.53
2023-01-22T02:14:40.855Z,55.40
2023-01-22T02:17:12.811Z,52.38
2023-01-22T02:19:42.005Z,51.17
2023-01-22T02:22:22.660Z,39.72
2023-01-22T02:24:51.001Z,51.95
2023-01-22T02:27:19.453Z,44.58
2023-01-22T02:32:19.115Z,46.05
2023-01-22T02:34:47.596Z,66.10
2023-01-22T02:37:15.419Z,58.30
2023-01-22T02:39:45.521Z,51.85
2023-01-22T02:42:13.456Z,59.75
2023-01-22T02:44:42.439Z,57.25
2023-01-22T02:47:10.165Z,47.38
2023-01-22T02:49:41.590Z,53.20
2023-01-22T02:52:09.441Z,54.30
2023-01-22T02:54:37.243Z,63.65
2023-01-22T02:57:05.105Z,44.40
2023-01-22T02:59:32.719Z,46.58
2023-01-22T03:02:03.120Z,46.78
2023-01-22T03:04:31.214Z,47.72
2023-01-22T03:06:58.785Z,47.83
2023-01-22T03:09:30.057Z,55.53
2023-01-22T03:11:58.838Z,51.70
2023-01-22T03:14:49.321Z,50.75
2023-01-22T03:17:36.685Z,50.20
2023-01-22T03:20:23.523Z,60.78
2023-01-22T03:22:51.463Z,44.55
2023-01-22T03:25:20.349Z,53.88
2023-01-22T03:28:07.412Z,52.85
2023-01-22T03:30:38.941Z,39.97
2023-01-22T03:33:08.748Z,53.97
2023-01-22T03:35:36.556Z,42.58
2023-01-22T03:38:12.767Z,47.83
2023-01-22T03:40:44.096Z,50.78
2023-01-22T03:43:11.818Z,48.85
2023-01-22T03:45:39.588Z,45.60
2023-01-22T03:48:10.676Z,47.80
2023-01-22T03:50:41.049Z,48.13
2023-01-22T03:53:08.712Z,38.97
2023-01-22T03:55:36.276Z,48.50
2023-01-22T03:58:04.163Z,44.58
2023-01-22T04:00:31.929Z,50.33
2023-01-22T04:03:03.564Z,47.17
2023-01-22T04:05:36.516Z,45.83
2023-01-22T04:08:04.329Z,45.13
2023-01-22T04:10:33.347Z,47.42
2023-01-22T04:13:03.513Z,41.45
2023-01-22T04:15:31.375Z,44.58
2023-01-22T04:18:01.419Z,41.95
2023-01-22T04:20:52.556Z,43.97
2023-01-22T04:26:08.585Z,36.15
2023-01-22T04:28:36.587Z,45.38
2023-01-22T04:31:05.138Z,38.60
2023-01-22T04:33:42.944Z,40.30
2023-01-22T04:36:15.896Z,41.80
2023-01-22T04:38:43.578Z,48.03
2023-01-22T04:41:11.248Z,51.95
2023-01-22T04:43:38.866Z,47.28
2023-01-22T04:46:06.563Z,45.60
2023-01-22T04:48:34.787Z,45.40
2023-01-22T04:51:02.431Z,44.15
2023-01-22T04:53:32.171Z,43.67
2023-01-22T04:56:01.042Z,46.28
2023-01-22T04:58:32.086Z,43.38
2023-01-22T05:01:01.222Z,39.35
2023-01-22T05:03:29.641Z,47.15
2023-01-22T05:06:02.011Z,45.42
2023-01-22T05:08:30.131Z,48.97
2023-01-22T05:11:02.710Z,40.35
2023-01-22T05:13:38.085Z,43.90
2023-01-22T05:16:06.306Z,52.33
2023-01-22T05:18:34.104Z,52.63
2023-01-22T05:23:33.001Z,35.35
2023-01-22T05:26:00.868Z,46.08
2023-01-22T05:28:38.864Z,53.25
2023-01-22T05:31:18.293Z,45.65
2023-01-22T05:33:57.518Z,51.97
2023-01-22T05:36:25.277Z,46.05
2023-01-22T05:38:56.037Z,37.83
2023-01-22T05:41:24.462Z,45.30
2023-01-22T05:46:26.446Z,39.80
2023-01-22T05:49:12.690Z,51.05
2023-01-22T05:51:41.868Z,47.35
2023-01-22T05:54:09.888Z,47.92
2023-01-22T05:56:40.246Z,41.25
2023-01-22T05:59:08.886Z,38.45
2023-01-22T06:01:36.494Z,46.08
2023-01-22T06:04:04.245Z,44.67
2023-01-22T06:06:31.997Z,40.53
2023-01-22T06:09:00.128Z,30.30
2023-01-22T06:11:33.207Z,43.63
2023-01-22T06:14:01.172Z,36.80
2023-01-22T06:16:29.124Z,45.28
2023-01-22T06:19:06.229Z,48.38
2023-01-22T06:21:47.075Z,39.05
2023-01-22T06:24:14.767Z,37.78
2023-01-22T06:26:43.451Z,45.08
2023-01-22T06:29:13.941Z,37.55
2023-01-22T06:31:42.948Z,36.30
2023-01-22T06:34:14.924Z,60.15
2023-01-22T06:36:44.879Z,22.17
2023-01-22T06:39:12.585Z,39.58
2023-01-22T06:41:48.867Z,42.42
2023-01-22T06:44:21.641Z,52.90
2023-01-22T06:46:53.404Z,43.53
2023-01-22T06:49:25.219Z,51.95
2023-01-22T06:52:00.189Z,44.20
2023-01-22T06:54:29.019Z,44.03
2023-01-22T06:56:56.599Z,40.80
2023-01-22T06:59:26.017Z,50.17
2023-01-22T07:01:53.870Z,39.88
2023-01-22T07:04:21.898Z,37.45
2023-01-22T07:06:49.703Z,42.22
2023-01-22T07:09:18.527Z,40.37
2023-01-22T07:11:46.282Z,41.00
2023-01-22T07:14:28.882Z,39.03
2023-01-22T07:17:06.675Z,44.08
2023-01-22T07:19:34.421Z,45.00
2023-01-22T07:22:02.752Z,43.85
2023-01-22T07:24:30.611Z,37.72
2023-01-22T07:27:01.173Z,34.13
2023-01-22T07:29:31.895Z,37.95
2023-01-22T07:31:59.651Z,40.13
2023-01-22T07:34:27.387Z,36.22
2023-01-22T07:36:55.403Z,40.70
2023-01-22T07:39:26.109Z,38.85
2023-01-22T07:41:53.959Z,43.38
2023-01-22T07:44:26.057Z,38.92
2023-01-22T07:46:54.078Z,37.97
2023-01-22T07:49:21.898Z,37.97
2023-01-22T07:51:50.158Z,43.03
2023-01-22T07:54:21.427Z,35.53
2023-01-22T07:56:55.228Z,38.65
2023-01-22T07:59:25.891Z,36.72
2023-01-22T08:02:03.227Z,43.75
2023-01-22T08:04:45.963Z,26.80
2023-01-22T08:07:27.831Z,42.13
2023-01-22T08:09:55.501Z,40.28
2023-01-22T08:12:23.948Z,38.83
2023-01-22T08:14:51.609Z,35.38
2023-01-22T08:17:19.379Z,42.20
2023-01-22T08:19:52.798Z,38.92
2023-01-22T08:22:24.328Z,36.65
2023-01-22T08:24:54.572Z,39.30
2023-01-22T08:27:24.447Z,42.20
2023-01-22T08:29:52.072Z,36.00
2023-01-22T08:32:19.958Z,38.05
2023-01-22T08:34:47.759Z,37.40
2023-01-22T08:37:15.390Z,38.20
2023-01-22T08:39:43.133Z,32.25
2023-01-22T08:42:16.511Z,40.28
2023-01-22T08:44:44.505Z,41.72
2023-01-22T08:47:12.577Z,45.15
2023-01-22T08:49:42.855Z,33.25
2023-01-22T08:52:13.524Z,35.17
2023-01-22T08:54:41.888Z,36.53
2023-01-22T08:57:09.526Z,40.58
2023-01-22T08:59:37.588Z,35.05
2023-01-22T09:02:06.095Z,36.78
2023-01-22T09:04:34.086Z,34.88
2023-01-22T09:07:04.929Z,42.00
2023-01-22T09:09:32.542Z,36.25
2023-01-22T09:12:00.177Z,43.05
2023-01-22T09:14:30.611Z,38.58
2023-01-22T09:16:58.200Z,35.50
2023-01-22T09:19:28.704Z,38.33
2023-01-22T09:21:56.317Z,39.40
2023-01-22T09:24:24.159Z,35.35
2023-01-22T09:26:51.767Z,36.88
2023-01-22T09:29:19.704Z,38.58
2023-01-22T09:31:47.473Z,32.30
2023-01-22T09:34:15.282Z,37.05
2023-01-22T09:36:43.327Z,33.80
2023-01-22T09:39:10.961Z,31.20
2023-01-22T09:41:46.752Z,40.95
2023-01-22T09:44:24.449Z,31.55
2023-01-22T09:46:55.065Z,32.58
2023-01-22T09:49:32.843Z,36.47
2023-01-22T09:52:04.285Z,34.80
2023-01-22T09:54:33.866Z,36.00
2023-01-22T09:57:07.088Z,31.80
2023-01-22T09:59:47.528Z,37.83
2023-01-22T10:02:24.943Z,37.90
2023-01-22T10:05:09.634Z,31.88
2023-01-22T10:07:43.358Z,41.38
2023-01-22T10:10:25.183Z,34.85
2023-01-22T10:13:22.327Z,36.97
2023-01-22T10:15:52.584Z,34.15
2023-01-22T10:18:25.921Z,38.20
2023-01-22T10:20:55.444Z,67.85
2023-01-22T10:23:26.538Z,60.80
2023-01-22T10:25:59.934Z,93.10
2023-01-22T10:28:28.380Z,60.53
2023-01-22T10:31:01.049Z,47.00
2023-01-22T10:33:30.054Z,50.90
2023-01-22T10:35:57.561Z,44.73
2023-01-22T10:38:30.889Z,35.80
2023-01-22T10:41:01.371Z,41.13
2023-01-22T10:43:37.297Z,52.88
2023-01-22T10:46:26.242Z,41.72
2023-01-22T10:49:01.750Z,43.28
2023-01-22T10:51:37.398Z,36.90
2023-01-22T10:54:18.857Z,44.60
2023-01-22T10:56:47.365Z,50.80
2023-01-22T10:59:24.968Z,42.15
2023-01-22T11:02:11.423Z,48.78
2023-01-22T11:04:42.008Z,39.80
2023-01-22T11:07:14.304Z,37.10
2023-01-22T11:10:10.132Z,49.50
2023-01-22T11:13:01.661Z,46.53
2023-01-22T11:15:44.407Z,34.80
2023-01-22T11:18:23.324Z,34.72
2023-01-22T11:20:57.015Z,36.17
2023-01-22T11:23:47.516Z,35.55
2023-01-22T11:26:20.400Z,36.10
2023-01-22T11:28:59.714Z,38.65
2023-01-22T11:31:58.461Z,35.88
2023-01-22T11:34:52.986Z,38.55
2023-01-22T11:38:05.492Z,34.40
2023-01-22T11:40:43.432Z,35.03
2023-01-22T11:43:18.838Z,38.47
2023-01-22T11:46:22.456Z,31.95
2023-01-22T11:49:02.862Z,35.30
2023-01-22T11:51:34.103Z,35.03
2023-01-22T11:54:28.207Z,35.47
2023-01-22T11:57:38.541Z,29.15
2023-01-22T12:00:36.266Z,27.95
2023-01-22T12:03:37.857Z,30.73
2023-01-22T12:06:24.752Z,28.98
2023-01-22T12:08:52.463Z,30.33
2023-01-22T12:11:35.311Z,31.23
2023-01-22T12:14:03.305Z,31.02
2023-01-22T12:16:52.031Z,25.92
2023-01-22T12:19:55.396Z,33.85
2023-01-22T12:22:43.693Z,31.90
2023-01-22T12:25:32.382Z,25.73
2023-01-22T12:28:26.258Z,34.00
2023-01-22T12:31:12.451Z,28.15
2023-01-22T12:33:42.519Z,29.90
2023-01-22T12:36:14.606Z,25.15
2023-01-22T12:38:45.170Z,32.63
2023-01-22T12:41:54.407Z,27.92
2023-01-22T12:44:37.840Z,25.15
2023-01-22T12:47:16.737Z,27.15
2023-01-22T12:49:50.423Z,27.77
2023-01-22T12:52:33.368Z,32.40
2023-01-22T12:55:41.634Z,29.95
2023-01-22T12:58:23.055Z,27.88
2023-01-22T13:03:32.090Z,23.10
2023-01-22T13:06:02.821Z,30.00
2023-01-22T13:08:49.184Z,29.27
2023-01-22T13:11:32.143Z,27.00
2023-01-22T13:14:19.676Z,24.75
2023-01-22T13:16:52.760Z,32.78
2023-01-22T13:19:44.829Z,27.02
2023-01-22T13:22:20.246Z,23.45
2023-01-22T13:24:58.772Z,31.52
2023-01-22T13:27:30.722Z,28.88
2023-01-22T13:30:08.071Z,27.02
2023-01-22T13:32:36.040Z,25.00
2023-01-22T13:35:05.863Z,25.23
2023-01-22T13:37:38.743Z,23.80
2023-01-22T13:40:24.508Z,26.00
2023-01-22T13:42:52.903Z,29.20
2023-01-22T13:45:26.642Z,25.10
2023-01-22T13:47:59.810Z,22.52
2023-01-22T13:50:29.795Z,26.17
2023-01-22T13:52:59.009Z,26.35
2023-01-22T13:55:28.087Z,24.77
2023-01-22T13:57:57.924Z,24.35
2023-01-22T14:02:56.727Z,22.50
2023-01-22T14:05:29.960Z,24.33
2023-01-22T14:08:06.621Z,28.20
2023-01-22T14:10:34.651Z,29.33
2023-01-22T14:13:11.221Z,24.90
2023-01-22T14:15:40.538Z,23.23
2023-01-22T14:18:13.573Z,26.48
2023-01-22T14:20:42.695Z,23.33
2023-01-22T14:23:10.704Z,26.35
2023-01-22T14:25:44.916Z,22.90
2023-01-22T14:28:14.962Z,28.80
2023-01-22T14:30:43.064Z,21.50
2023-01-22T14:33:24.904Z,22.60
2023-01-22T14:35:53.812Z,23.33
2023-01-22T14:38:22.260Z,26.67
2023-01-22T14:40:50.205Z,25.02
2023-01-22T14:43:20.886Z,26.85
2023-01-22T14:45:48.795Z,23.38
2023-01-22T14:48:19.162Z,24.92
2023-01-22T14:50:52.898Z,23.60
2023-01-22T14:53:23.759Z,27.02
2023-01-22T14:55:51.475Z,27.00
2023-01-22T14:58:19.502Z,24.95
2023-01-22T15:00:52.166Z,25.50
2023-01-22T15:03:19.831Z,32.95
2023-01-22T15:05:54.408Z,22.90
2023-01-22T15:08:22.341Z,22.23
2023-01-22T15:10:49.884Z,26.58
2023-01-22T15:13:17.622Z,21.67
2023-01-22T15:15:45.662Z,26.95
2023-01-22T15:18:13.436Z,26.73
2023-01-22T15:20:41.201Z,23.92
2023-01-22T15:23:08.890Z,25.42
2023-01-22T15:25:36.362Z,29.27
2023-01-22T15:28:06.740Z,21.05
2023-01-22T15:30:37.373Z,30.15
2023-01-22T15:33:05.243Z,28.73
2023-01-22T15:35:33.118Z,25.52
2023-01-22T15:38:01.296Z,22.75
2023-01-22T15:40:29.422Z,27.70
2023-01-22T15:42:57.427Z,27.92
2023-01-22T15:45:25.231Z,27.00
2023-01-22T15:47:57.291Z,22.77
2023-01-22T15:50:27.171Z,21.38
2023-01-22T15:52:58.358Z,27.88
2023-01-22T15:55:27.197Z,28.25
2023-01-22T15:57:54.853Z,27.83
2023-01-22T16:00:22.817Z,24.85
2023-01-22T16:02:50.720Z,23.95
2023-01-22T16:05:20.350Z,27.88
2023-01-22T16:07:51.949Z,24.77
2023-01-22T16:10:20.441Z,24.75
2023-01-22T16:12:50.832Z,27.85
2023-01-22T16:15:18.872Z,25.55
2023-01-22T16:17:46.714Z,21.10
2023-01-22T16:20:14.412Z,25.27
2023-01-22T16:22:45.531Z,25.83
2023-01-22T16:25:13.576Z,30.17
2023-01-22T16:27:45.252Z,26.73
2023-01-22T16:30:16.320Z,25.88
2023-01-22T16:32:46.958Z,29.67
2023-01-22T16:35:15.108Z,26.45
2023-01-22T16:37:44.542Z,25.02
2023-01-22T16:40:13.524Z,24.85
2023-01-22T16:42:59.925Z,25.67
2023-01-22T16:45:27.642Z,25.33
2023-01-22T16:47:56.744Z,29.88
2023-01-22T16:50:24.553Z,28.38
2023-01-22T16:52:52.193Z,31.75
2023-01-22T16:55:20.105Z,28.63
2023-01-22T16:57:47.632Z,26.23
2023-01-22T17:00:15.644Z,28.60
2023-01-22T17:02:49.065Z,31.60
2023-01-22T17:05:16.768Z,30.75
2023-01-22T17:07:44.548Z,30.73
2023-01-22T17:10:12.266Z,36.95
2023-01-22T17:12:39.874Z,37.42
2023-01-22T17:15:11.194Z,29.65
2023-01-22T17:17:41.023Z,28.50
2023-01-22T17:22:39.396Z,27.67
2023-01-22T17:25:07.579Z,30.00
2023-01-22T17:27:39.716Z,30.33
2023-01-22T17:30:15.873Z,30.05
2023-01-22T17:32:45.429Z,27.52
2023-01-22T17:35:15.023Z,28.80
2023-01-22T17:37:45.905Z,28.27
2023-01-22T17:40:28.213Z,25.15
2023-01-22T17:42:56.433Z,22.95
2023-01-22T17:45:24.171Z,28.40
2023-01-22T17:47:51.694Z,26.05
2023-01-22T17:50:19.556Z,28.50
2023-01-22T17:52:47.327Z,24.80
2023-01-22T17:55:18.329Z,27.77
2023-01-22T17:57:46.145Z,22.88
2023-01-22T18:00:17.180Z,25.90
2023-01-22T18:02:44.868Z,28.08
2023-01-22T18:05:12.466Z,29.05
2023-01-22T18:07:40.117Z,30.50
2023-01-22T18:10:11.253Z,25.73
2023-01-22T18:12:38.982Z,30.55
2023-01-22T18:15:07.521Z,25.40
2023-01-22T18:17:36.176Z,27.38
2023-01-22T18:20:05.644Z,38.72
2023-01-22T18:22:33.622Z,32.28
2023-01-22T18:25:01.430Z,33.67
2023-01-22T18:27:29.132Z,34.95
2023-01-22T18:29:58.302Z,33.13
2023-01-22T18:32:26.257Z,28.60
2023-01-22T18:34:55.334Z,40.47
2023-01-22T18:37:23.002Z,36.88
2023-01-22T18:39:50.987Z,30.02
2023-01-22T18:42:18.880Z,32.55
2023-01-22T18:44:46.614Z,31.52
2023-01-22T18:47:15.522Z,30.98
2023-01-22T18:49:43.193Z,29.83
2023-01-22T18:52:11.002Z,32.53
2023-01-22T18:54:41.580Z,33.10
2023-01-22T18:57:12.280Z,29.95
2023-01-22T18:59:40.169Z,28.65
2023-01-22T19:02:12.492Z,34.17
2023-01-22T19:04:40.133Z,33.55
2023-01-22T19:07:09.872Z,32.25
2023-01-22T19:09:37.474Z,32.95
2023-01-22T19:12:13.635Z,34.17
2023-01-22T19:14:42.769Z,31.00
2023-01-22T19:17:10.324Z,30.75
2023-01-22T19:19:38.188Z,34.78
2023-01-22T19:22:05.872Z,35.13
2023-01-22T19:24:40.084Z,36.45
2023-01-22T19:27:12.225Z,34.45
2023-01-22T19:29:42.901Z,31.40
2023-01-22T19:32:14.818Z,30.30
2023-01-22T19:34:42.824Z,33.10
2023-01-22T19:37:19.216Z,36.13
2023-01-22T19:39:48.297Z,33.13
2023-01-22T19:42:16.664Z,32.42
2023-01-22T19:44:45.415Z,29.58
2023-01-22T19:47:13.879Z,33.85
2023-01-22T19:49:43.745Z,31.02
2023-01-22T19:54:47.296Z,30.25
2023-01-22T19:57:15.795Z,33.00
2023-01-22T19:59:48.020Z,35.60
2023-01-22T20:02:15.806Z,31.55
2023-01-22T20:04:43.786Z,35.13
2023-01-22T20:07:21.653Z,35.72
2023-01-22T20:09:49.428Z,29.93
2023-01-22T20:12:17.014Z,32.58
2023-01-22T20:14:44.810Z,32.55
2023-01-22T20:17:14.054Z,31.48
2023-01-22T20:19:42.246Z,36.42
2023-01-22T20:22:10.927Z,36.78
2023-01-22T20:24:40.274Z,45.90
2023-01-22T20:27:11.894Z,43.95
2023-01-22T20:29:42.560Z,45.25
2023-01-22T20:32:10.453Z,32.85
2023-01-22T20:34:38.057Z,34.67
2023-01-22T20:37:05.884Z,32.63
2023-01-22T20:39:33.450Z,39.75
2023-01-22T20:42:01.177Z,33.05
2023-01-22T20:44:28.917Z,33.08
2023-01-22T20:46:56.935Z,35.58
2023-01-22T20:49:24.664Z,33.17
2023-01-22T20:51:53.332Z,31.90
2023-01-22T20:54:24.369Z,32.40
2023-01-22T20:56:52.177Z,35.35
2023-01-22T20:59:19.903Z,30.17
2023-01-22T21:01:47.749Z,37.17
2023-01-22T21:04:19.671Z,37.20
2023-01-22T21:06:47.982Z,30.88
2023-01-22T21:09:15.765Z,35.83
2023-01-22T21:11:43.640Z,33.08
2023-01-22T21:14:16.189Z,33.70
2023-01-22T21:16:49.592Z,35.22
2023-01-22T21:19:22.924Z,34.80
2023-01-22T21:21:51.545Z,31.30
2023-01-22T21:24:22.119Z,32.47
2023-01-22T21:26:51.478Z,28.77
2023-01-22T21:29:25.905Z,30.17
2023-01-22T21:31:56.746Z,35.65
2023-01-22T21:34:44.743Z,33.85
2023-01-22T21:37:12.453Z,38.58
2023-01-22T21:39:46.256Z,35.38
2023-01-22T21:42:32.668Z,39.50
2023-01-22T21:45:18.972Z,33.40
2023-01-22T21:47:46.925Z,36.47
2023-01-22T21:50:14.655Z,30.35
2023-01-22T21:52:49.095Z,33.17
2023-01-22T21:55:21.255Z,34.55
2023-01-22T21:57:49.806Z,35.88
2023-01-22T22:00:19.718Z,28.30
2023-01-22T22:02:47.768Z,32.28
2023-01-22T22:05:15.680Z,37.15
2023-01-22T22:07:46.568Z,33.90
2023-01-22T22:10:15.158Z,32.65
2023-01-22T22:12:43.128Z,39.40
2023-01-22T22:15:11.654Z,31.73
2023-01-22T22:17:48.979Z,39.85
2023-01-22T22:20:17.613Z,35.20
2023-01-22T22:22:46.032Z,32.70
2023-01-22T22:25:13.889Z,34.90
2023-01-22T22:27:43.871Z,36.40
2023-01-22T22:30:12.114Z,33.38
2023-01-22T22:32:48.925Z,39.40
2023-01-22T22:35:16.996Z,32.13
2023-01-22T22:37:44.560Z,35.65
2023-01-22T22:40:13.638Z,35.25
2023-01-22T22:42:41.114Z,33.17
2023-01-22T22:45:09.950Z,34.15
2023-01-22T22:47:37.738Z,36.80
2023-01-22T22:50:14.622Z,35.55
2023-01-22T22:52:43.545Z,41.92
2023-01-22T22:55:11.140Z,45.47
2023-01-22T22:57:41.245Z,42.67
2023-01-22T23:00:12.024Z,38.83
2023-01-22T23:02:44.949Z,36.15
2023-01-22T23:05:12.609Z,38.78
2023-01-22T23:07:40.858Z,36.20
2023-01-22T23:10:28.737Z,35.05
2023-01-22T23:13:01.409Z,36.08
2023-01-22T23:15:30.811Z,36.95
2023-01-22T23:17:59.927Z,38.00
2023-01-22T23:20:28.390Z,32.55
2023-01-22T23:22:58.285Z,35.17
2023-01-22T23:25:26.293Z,34.65
2023-01-22T23:27:56.724Z,32.92
2023-01-22T23:30:24.535Z,37.67
2023-01-22T23:32:57.770Z,37.70
2023-01-22T23:35:28.548Z,39.58
2023-01-22T23:37:56.602Z,37.70
2023-01-22T23:40:24.103Z,39.05
2023-01-22T23:42:54.381Z,37.67
2023-01-22T23:45:21.947Z,40.75
2023-01-22T23:47:54.937Z,39.85
2023-01-22T23:50:28.775Z,38.55
2023-01-22T23:52:56.373Z,39.88
2023-01-22T23:55:35.496Z,33.50
2023-01-22T23:58:03.792Z,34.88
